Time;durP1;ratioP1;P1;durP2;ratioP2;P2;SDS_P1;SDS_P2;PMS_P1;PMS_P2;Temp;Humidity;BMP_temperature;BMP_pressure;BME280_temperature;BME280_humidity;BME280_pressure;Samples;Min_cycle;Max_cycle;Signal;HPM_P1;HPM_P2
2020/12/12 00:01:42;;;;;;;123.60;47.28;;;;;;;0.03;100.00;99354.16;4966281;28;20054;-48
2020/12/12 00:04:09;;;;;;;136.23;48.97;;;;;;;0.04;100.00;99345.78;4973278;28;20051;-56
2020/12/12 00:06:35;;;;;;;131.82;49.63;;;;;;;0.09;100.00;99342.69;4966015;28;20046;-56
2020/12/12 00:09:03;;;;;;;136.95;49.42;;;;;;;0.06;100.00;99341.72;4972619;28;20109;-51
2020/12/12 00:11:29;;;;;;;146.23;49.75;;;;;;;-0.04;100.00;99347.97;4973908;28;20054;-54
2020/12/12 00:13:56;;;;;;;134.27;51.03;;;;;;;0.10;100.00;99341.91;4972512;28;20450;-48
2020/12/12 00:16:22;;;;;;;144.05;50.20;;;;;;;0.02;100.00;99344.88;4973857;28;20106;-49
2020/12/12 00:18:49;;;;;;;137.05;49.45;;;;;;;-0.05;100.00;99341.19;4972162;28;20499;-48
2020/12/12 00:21:21;;;;;;;137.13;49.72;;;;;;;-0.08;100.00;99339.44;4973611;28;20117;-52
2020/12/12 00:23:48;;;;;;;136.57;46.95;;;;;;;0.14;100.00;99337.88;4966592;28;20553;-49
2020/12/12 00:26:21;;;;;;;144.43;49.42;;;;;;;-0.17;100.00;99343.19;4973463;28;20055;-50
2020/12/12 00:28:48;;;;;;;144.65;47.97;;;;;;;-0.19;100.00;99334.69;4966191;28;20051;-48
2020/12/12 00:31:17;;;;;;;135.52;48.08;;;;;;;-0.05;100.00;99333.66;4973339;28;20097;-52
2020/12/12 00:33:44;;;;;;;140.68;47.25;;;;;;;-0.18;100.00;99336.44;4965971;28;20047;-52
2020/12/12 00:36:11;;;;;;;143.85;48.72;;;;;;;-0.39;100.00;99339.66;4973105;28;20138;-54
2020/12/12 00:38:37;;;;;;;156.75;52.53;;;;;;;-0.45;100.00;99338.50;4972435;28;20050;-52
2020/12/12 00:41:05;;;;;;;138.85;49.13;;;;;;;-0.38;100.00;99336.34;4972340;28;20482;-53
2020/12/12 00:43:32;;;;;;;143.38;50.33;;;;;;;-0.49;100.00;99327.44;4973387;28;20046;-53
2020/12/12 00:45:59;;;;;;;149.70;49.75;;;;;;;-0.44;100.00;99333.53;4972210;28;20182;-50
2020/12/12 00:48:26;;;;;;;141.40;47.08;;;;;;;-0.43;100.00;99327.72;4973160;28;20057;-53
2020/12/12 00:50:52;;;;;;;140.55;47.92;;;;;;;-0.50;100.00;99325.72;4972308;28;20462;-56
2020/12/12 00:53:19;;;;;;;144.77;48.78;;;;;;;-0.68;100.00;99322.31;4973504;28;20055;-53
2020/12/12 00:55:45;;;;;;;140.70;48.47;;;;;;;-0.52;100.00;99328.13;4972311;28;20113;-53
2020/12/12 00:58:12;;;;;;;141.68;47.13;;;;;;;-0.55;100.00;99319.63;4972829;28;20050;-51
2020/12/12 01:00:38;;;;;;;134.05;47.97;;;;;;;-0.64;100.00;99330.09;4972784;28;20463;-52
2020/12/12 01:03:05;;;;;;;146.50;48.47;;;;;;;-0.51;100.00;99334.03;4971881;28;20046;-49
2020/12/12 01:05:32;;;;;;;142.52;49.03;;;;;;;-0.67;100.00;99334.97;4970753;28;20054;-52
2020/12/12 01:07:59;;;;;;;159.82;50.78;;;;;;;-0.63;100.00;99335.97;4971772;28;20101;-54
2020/12/12 01:10:26;;;;;;;138.95;47.78;;;;;;;-0.56;100.00;99336.31;4973418;28;20509;-53
2020/12/12 01:12:52;;;;;;;121.95;45.58;;;;;;;-0.57;100.00;99338.78;4972100;28;20534;-54
2020/12/12 01:15:19;;;;;;;133.98;47.25;;;;;;;-0.69;100.00;99338.16;4973461;28;20514;-52
2020/12/12 01:17:46;;;;;;;148.40;50.60;;;;;;;-0.84;100.00;99333.28;4971510;28;20093;-57
2020/12/12 01:20:13;;;;;;;156.60;53.28;;;;;;;-0.84;100.00;99328.25;4972641;28;20133;-53
2020/12/12 01:22:40;;;;;;;144.02;48.30;;;;;;;-0.73;100.00;99331.31;4972743;28;20055;-53
2020/12/12 01:25:07;;;;;;;151.30;52.70;;;;;;;-0.64;100.00;99332.59;4971871;28;20050;-51
2020/12/12 01:27:33;;;;;;;155.13;50.35;;;;;;;-0.75;100.00;99333.72;4971163;28;20058;-53
2020/12/12 01:30:00;;;;;;;145.63;46.90;;;;;;;-0.62;100.00;99335.19;4971792;28;20396;-56
2020/12/12 01:32:26;;;;;;;154.38;47.72;;;;;;;-0.72;100.00;99340.56;4973179;28;20050;-54
2020/12/12 01:34:53;;;;;;;142.10;49.00;;;;;;;-0.80;100.00;99335.16;4971816;28;20043;-50
2020/12/12 01:37:23;;;;;;;135.50;47.13;;;;;;;-0.66;100.00;99339.19;4973101;28;20722;-53
2020/12/12 01:39:49;;;;;;;143.90;49.13;;;;;;;-0.80;100.00;99336.00;4971786;28;20062;-56
2020/12/12 01:42:16;;;;;;;159.50;50.03;;;;;;;-0.83;100.00;99335.88;4973199;28;20054;-52
2020/12/12 01:44:42;;;;;;;147.10;47.90;;;;;;;-0.64;100.00;99339.28;4965870;28;20054;-54
2020/12/12 01:47:09;;;;;;;133.27;46.40;;;;;;;-0.67;100.00;99334.97;4972862;28;20491;-53
2020/12/12 01:49:36;;;;;;;149.82;50.47;;;;;;;-0.89;100.00;99338.06;4976012;28;20050;-54
2020/12/12 01:52:05;;;;;;;150.98;52.08;;;;;;;-0.81;100.00;99336.81;4975580;28;22262;-53
2020/12/12 01:54:32;;;;;;;154.05;50.10;;;;;;;-0.59;100.00;99340.38;4976524;28;20057;-53
2020/12/12 01:57:03;;;;;;;157.55;49.80;;;;;;;-0.74;100.00;99344.63;4975555;28;20138;-52
2020/12/12 01:59:30;;;;;;;138.88;49.35;;;;;;;-0.79;100.00;99342.78;4976424;28;20097;-55
2020/12/12 02:01:59;;;;;;;145.90;48.47;;;;;;;-0.80;100.00;99335.16;4975072;28;20051;-54
2020/12/12 02:04:30;;;;;;;144.98;49.15;;;;;;;-0.89;100.00;99340.59;4976165;28;20074;-54
2020/12/12 02:06:56;;;;;;;167.10;52.05;;;;;;;-0.98;100.00;99339.28;4974898;28;20049;-54
2020/12/12 02:09:23;;;;;;;165.93;51.47;;;;;;;-0.88;100.00;99331.41;4975833;28;20053;-50
2020/12/12 02:11:50;;;;;;;164.38;54.40;;;;;;;-0.97;100.00;99334.34;4974922;28;20418;-50
2020/12/12 02:14:17;;;;;;;160.10;51.35;;;;;;;-0.98;100.00;99337.63;4975738;28;20066;-55
2020/12/12 02:16:55;;;;;;;170.13;53.42;;;;;;;-1.00;100.00;99326.66;4968267;28;20467;-55
2020/12/12 02:19:22;;;;;;;160.63;51.92;;;;;;;-0.90;100.00;99333.84;4975492;28;20043;-50
2020/12/12 02:21:52;;;;;;;154.30;48.72;;;;;;;-0.77;100.00;99331.16;4974898;28;20057;-50
2020/12/12 02:24:19;;;;;;;154.85;48.50;;;;;;;-0.95;100.00;99322.72;4976887;28;20070;-50
2020/12/12 02:26:46;;;;;;;158.45;51.13;;;;;;;-0.84;100.00;99325.72;4974424;28;20057;-55
2020/12/12 02:29:14;;;;;;;152.10;50.85;;;;;;;-0.96;100.00;99327.66;4975457;28;20133;-50
2020/12/12 02:31:41;;;;;;;163.02;51.15;;;;;;;-1.00;100.00;99315.75;4971181;28;20076;-51
2020/12/12 02:34:08;;;;;;;159.55;50.50;;;;;;;-1.08;100.00;99320.38;4974617;28;20054;-55
2020/12/12 02:36:37;;;;;;;167.13;50.78;;;;;;;-1.07;100.00;99320.44;4975100;28;20043;-52
2020/12/12 02:39:05;;;;;;;151.10;49.35;;;;;;;-1.04;100.00;99318.09;4973992;28;21015;-53
2020/12/12 02:41:32;;;;;;;157.75;51.85;;;;;;;-1.22;100.00;99323.84;4975363;28;20054;-53
2020/12/12 02:43:58;;;;;;;148.05;48.38;;;;;;;-1.01;100.00;99326.59;4974115;28;20057;-51
2020/12/12 02:46:25;;;;;;;164.73;52.30;;;;;;;-1.12;100.00;99316.00;4971776;28;20062;-51
2020/12/12 02:48:52;;;;;;;170.32;53.35;;;;;;;-1.12;100.00;99321.00;4968627;28;20499;-52
2020/12/12 02:51:19;;;;;;;158.35;49.50;;;;;;;-1.05;100.00;99323.91;4975368;28;20667;-55
2020/12/12 02:53:46;;;;;;;151.00;50.42;;;;;;;-0.75;100.00;99336.22;4974018;28;20055;-53
2020/12/12 02:56:14;;;;;;;168.32;52.25;;;;;;;-1.08;100.00;99332.94;4975054;28;20058;-52
2020/12/12 02:58:41;;;;;;;177.68;51.67;;;;;;;-1.14;100.00;99327.63;4973601;28;20049;-53
2020/12/12 03:01:08;;;;;;;162.63;51.17;;;;;;;-0.89;100.00;99340.59;4973957;28;20059;-50
2020/12/12 03:03:35;;;;;;;169.07;50.95;;;;;;;-1.04;100.00;99334.81;4974882;28;20050;-50
2020/12/12 03:06:02;;;;;;;149.05;50.20;;;;;;;-0.71;100.00;99335.59;4974045;28;20050;-55
2020/12/12 03:08:29;;;;;;;149.00;49.85;;;;;;;-0.97;100.00;99326.81;4974869;28;20645;-50
2020/12/12 03:10:55;;;;;;;152.00;49.90;;;;;;;-1.13;100.00;99330.19;4974134;28;20058;-53
2020/12/12 03:13:22;;;;;;;152.00;51.50;;;;;;;-0.95;100.00;99332.75;4974765;28;20077;-51
2020/12/12 03:15:49;;;;;;;141.18;48.30;;;;;;;-0.77;100.00;99332.78;4972785;28;20046;-52
2020/12/12 03:18:16;;;;;;;158.93;51.60;;;;;;;-1.19;100.00;99334.06;4973943;28;20097;-49
2020/12/12 03:20:42;;;;;;;162.02;50.65;;;;;;;-1.11;100.00;99330.25;4967088;28;20053;-48
2020/12/12 03:23:11;;;;;;;163.52;51.92;;;;;;;-1.05;100.00;99333.97;4951710;28;20125;-51
2020/12/12 03:25:39;;;;;;;152.70;50.05;;;;;;;-1.06;100.00;99333.88;4954609;28;20058;-48
2020/12/12 03:28:07;;;;;;;164.20;50.88;;;;;;;-1.17;100.00;99332.47;4953536;28;20062;-49
2020/12/12 03:30:35;;;;;;;175.60;53.53;;;;;;;-1.29;100.00;99333.59;4952958;28;20418;-49
2020/12/12 03:33:03;;;;;;;157.88;49.67;;;;;;;-1.32;100.00;99327.56;4953940;28;20459;-53
2020/12/12 03:35:32;;;;;;;172.52;52.58;;;;;;;-1.28;100.00;99326.94;4954960;28;20105;-52
2020/12/12 03:38:00;;;;;;;157.90;51.65;;;;;;;-1.29;100.00;99330.22;4953341;28;20444;-53
2020/12/12 03:40:32;;;;;;;147.38;49.10;;;;;;;-1.19;100.00;99337.44;4954653;28;20065;-51
2020/12/12 03:42:59;;;;;;;146.02;47.63;;;;;;;-1.04;100.00;99335.69;4952542;28;20411;-48
2020/12/12 03:45:26;;;;;;;172.68;53.05;;;;;;;-1.30;100.00;99331.84;4954572;28;20067;-53
2020/12/12 03:47:52;;;;;;;168.18;52.20;;;;;;;-1.34;100.00;99337.53;4952904;28;20058;-49
2020/12/12 03:50:27;;;;;;;164.32;49.88;;;;;;;-1.31;100.00;99336.81;4954635;28;20062;-54
2020/12/12 03:52:57;;;;;;;164.57;51.58;;;;;;;-1.34;100.00;99344.16;4953230;28;20057;-53
2020/12/12 03:55:24;;;;;;;139.20;46.95;;;;;;;-1.23;100.00;99347.25;4947458;28;20058;-54
2020/12/12 03:57:50;;;;;;;146.18;46.22;;;;;;;-1.27;100.00;99338.69;4952798;28;20051;-53
2020/12/12 04:00:17;;;;;;;155.80;46.67;;;;;;;-1.40;100.00;99334.69;4954248;28;20058;-52
2020/12/12 04:02:44;;;;;;;131.18;46.28;;;;;;;-1.42;100.00;99341.28;4946665;28;20053;-53
2020/12/12 04:05:11;;;;;;;130.25;46.83;;;;;;;-1.52;100.00;99340.75;4953570;28;20061;-54
2020/12/12 04:07:38;;;;;;;126.45;43.88;;;;;;;-1.51;100.00;99344.97;4953249;28;20078;-49
2020/12/12 04:10:05;;;;;;;125.78;43.88;;;;;;;-1.47;100.00;99344.34;4952375;28;20055;-56
2020/12/12 04:12:32;;;;;;;132.02;43.58;;;;;;;-1.47;100.00;99344.34;4954214;28;20133;-52
2020/12/12 04:14:58;;;;;;;121.28;44.03;;;;;;;-1.20;100.00;99343.25;4952814;28;20054;-51
2020/12/12 04:17:25;;;;;;;130.02;43.45;;;;;;;-1.48;100.00;99335.94;4953602;28;20066;-51
2020/12/12 04:19:51;;;;;;;121.25;42.60;;;;;;;-1.25;100.00;99339.63;4952923;28;20056;-50
2020/12/12 04:22:18;;;;;;;118.55;42.55;;;;;;;-1.31;100.00;99340.19;4954081;28;20051;-48
2020/12/12 04:24:44;;;;;;;110.32;41.97;;;;;;;-1.22;100.00;99338.91;4953005;28;20053;-52
2020/12/12 04:27:11;;;;;;;119.78;43.13;;;;;;;-1.39;100.00;99333.91;4953396;28;20051;-54
2020/12/12 04:29:38;;;;;;;119.57;41.25;;;;;;;-1.47;100.00;99332.66;4952816;28;20055;-54
2020/12/12 04:32:05;;;;;;;111.22;41.15;;;;;;;-1.44;100.00;99339.47;4953028;28;20782;-53
2020/12/12 04:34:31;;;;;;;109.47;41.92;;;;;;;-1.41;100.00;99332.09;4954391;28;20051;-55
2020/12/12 04:36:58;;;;;;;119.25;42.65;;;;;;;-1.44;100.00;99332.81;4952935;28;20043;-55
2020/12/12 04:39:25;;;;;;;110.32;42.22;;;;;;;-1.24;100.00;99330.47;4953984;28;20051;-55
2020/12/12 04:41:52;;;;;;;107.13;40.78;;;;;;;-1.49;100.00;99334.22;4952678;28;20468;-56
2020/12/12 04:44:19;;;;;;;113.95;42.75;;;;;;;-1.46;100.00;99338.53;4954061;28;20061;-53
2020/12/12 04:46:46;;;;;;;111.15;40.92;;;;;;;-1.34;100.00;99335.03;4952985;28;20055;-55
2020/12/12 04:49:12;;;;;;;117.43;43.20;;;;;;;-1.46;100.00;99331.00;4953586;28;20043;-53
2020/12/12 04:51:40;;;;;;;120.05;43.20;;;;;;;-1.45;100.00;99338.63;4953129;28;20043;-56
2020/12/12 04:54:09;;;;;;;120.82;44.05;;;;;;;-1.45;100.00;99337.75;4952752;28;20051;-56
2020/12/12 04:56:36;;;;;;;121.55;41.58;;;;;;;-1.24;100.00;99338.00;4951713;28;20055;-51
2020/12/12 04:59:04;;;;;;;111.68;42.15;;;;;;;-1.41;100.00;99337.13;4952450;28;20055;-54
2020/12/12 05:01:32;;;;;;;115.03;42.72;;;;;;;-1.18;100.00;99340.81;4954199;28;20506;-53
2020/12/12 05:04:02;;;;;;;109.22;42.65;;;;;;;-1.19;100.00;99339.09;4952625;28;20530;-53
2020/12/12 05:06:32;;;;;;;123.47;45.25;;;;;;;-1.20;100.00;99334.81;4954093;28;20066;-54
2020/12/12 05:08:59;;;;;;;112.05;42.03;;;;;;;-1.19;100.00;99336.56;4952232;28;20491;-53
2020/12/12 05:11:26;;;;;;;110.55;42.70;;;;;;;-1.37;100.00;99339.88;4953773;28;20055;-55
2020/12/12 05:13:53;;;;;;;114.30;41.38;;;;;;;-1.40;100.00;99346.38;4952610;28;20051;-55
2020/12/12 05:16:20;;;;;;;114.80;44.03;;;;;;;-1.33;100.00;99345.91;4953690;28;20512;-52
2020/12/12 05:18:50;;;;;;;117.63;44.97;;;;;;;-1.40;100.00;99341.34;4952007;28;20047;-50
2020/12/12 05:21:19;;;;;;;122.82;46.42;;;;;;;-1.47;100.00;99341.84;4954164;28;20055;-50
2020/12/12 05:23:46;;;;;;;107.40;43.22;;;;;;;-1.20;100.00;99340.75;4949333;28;20057;-55
2020/12/12 05:26:18;;;;;;;117.35;43.90;;;;;;;-1.27;100.00;99340.34;4957596;28;20078;-50
2020/12/12 05:28:45;;;;;;;110.97;43.72;;;;;;;-1.34;100.00;99342.56;4950057;28;20050;-54
2020/12/12 05:31:12;;;;;;;116.40;45.20;;;;;;;-1.27;100.00;99342.84;4957160;28;20055;-54
2020/12/12 05:33:39;;;;;;;108.93;44.13;;;;;;;-1.33;100.00;99344.28;4956786;28;20047;-51
2020/12/12 05:36:07;;;;;;;118.22;44.20;;;;;;;-1.40;100.00;99339.72;4955927;28;20051;-53
2020/12/12 05:38:34;;;;;;;126.03;45.35;;;;;;;-1.37;100.00;99342.38;4954101;28;20050;-54
2020/12/12 05:41:00;;;;;;;102.18;41.80;;;;;;;-1.40;100.00;99341.34;4949971;28;20411;-48
2020/12/12 05:43:35;;;;;;;104.60;41.92;;;;;;;-1.39;100.00;99343.94;4957346;28;21090;-52
2020/12/12 05:46:02;;;;;;;113.72;42.15;;;;;;;-1.37;100.00;99342.38;4955895;28;20047;-55
2020/12/12 05:48:29;;;;;;;113.65;43.13;;;;;;;-1.39;100.00;99350.59;4957111;28;20138;-49
2020/12/12 05:50:56;;;;;;;106.80;42.58;;;;;;;-1.54;100.00;99350.69;4955794;28;20420;-54
2020/12/12 05:53:23;;;;;;;114.18;43.85;;;;;;;-1.45;100.00;99346.13;4956979;28;20054;-52
2020/12/12 05:55:54;;;;;;;112.20;44.80;;;;;;;-1.55;100.00;99352.34;4955588;28;20057;-50
2020/12/12 05:58:22;;;;;;;118.22;44.60;;;;;;;-1.48;100.00;99352.66;4956829;28;20055;-53
2020/12/12 06:00:49;;;;;;;127.20;49.08;;;;;;;-1.40;100.00;99349.75;4955682;28;20049;-50
2020/12/12 06:03:32;;;;;;;132.15;50.35;;;;;;;-1.42;100.00;99350.47;4956973;28;20173;-53
2020/12/12 06:06:05;;;;;;;128.63;47.92;;;;;;;-1.37;100.00;99347.41;4955501;28;20051;-52
2020/12/12 06:08:39;;;;;;;120.43;46.80;;;;;;;-1.54;100.00;99346.53;4956768;28;20503;-52
2020/12/12 06:11:08;;;;;;;131.90;50.38;;;;;;;-1.57;100.00;99345.53;4955409;28;20055;-49
2020/12/12 06:13:39;;;;;;;122.32;47.42;;;;;;;-1.44;100.00;99347.00;4954388;28;20411;-51
2020/12/12 06:16:07;;;;;;;121.15;47.10;;;;;;;-1.36;100.00;99349.13;4955326;28;20061;-50
2020/12/12 06:18:37;;;;;;;127.00;49.40;;;;;;;-1.38;100.00;99348.19;4953751;28;20055;-49
2020/12/12 06:21:08;;;;;;;113.22;45.63;;;;;;;-1.23;100.00;99355.63;4955172;28;20050;-49
2020/12/12 06:23:40;;;;;;;121.57;48.42;;;;;;;-1.43;100.00;99349.63;4954086;28;20077;-51
2020/12/12 06:26:08;;;;;;;129.73;48.67;;;;;;;-1.39;100.00;99355.63;4954974;28;20130;-51
2020/12/12 06:28:44;;;;;;;124.82;50.10;;;;;;;-1.46;100.00;99351.97;4953714;28;20138;-49
2020/12/12 06:31:12;;;;;;;130.27;52.42;;;;;;;-1.39;100.00;99355.63;4955643;28;20074;-53
2020/12/12 06:33:49;;;;;;;125.88;49.15;;;;;;;-1.36;100.00;99354.16;4955008;28;20047;-49
2020/12/12 06:36:32;;;;;;;123.40;49.58;;;;;;;-1.40;100.00;99353.91;4953044;28;20057;-50
2020/12/12 06:39:25;;;;;;;123.10;48.38;;;;;;;-1.42;100.00;99345.44;4950414;28;20062;-46
2020/12/12 06:41:55;;;;;;;127.10;50.55;;;;;;;-1.40;100.00;99353.91;4949288;28;20105;-50
2020/12/12 06:44:41;;;;;;;118.65;47.63;;;;;;;-1.25;100.00;99346.28;4956281;28;20057;-43
2020/12/12 06:47:08;;;;;;;;;;;;;;;-1.20;100.00;99347.38;4955080;28;20648;-44
2020/12/12 06:49:36;;;;;;;91.82;41.67;;;;;;;-0.97;100.00;99348.53;4955672;28;19937;-41
2020/12/12 06:52:03;;;;;;;108.53;45.72;;;;;;;-1.13;100.00;99352.78;4954507;28;20130;-42
2020/12/12 06:54:30;;;;;;;118.55;47.30;;;;;;;-1.11;100.00;99351.25;4956165;28;20481;-43
2020/12/12 06:56:56;;;;;;;118.20;48.42;;;;;;;-1.17;100.00;99350.06;4954587;28;20126;-48
2020/12/12 06:59:35;;;;;;;108.30;46.97;;;;;;;-0.96;100.00;99365.34;4955625;28;20043;-42
2020/12/12 07:02:06;;;;;;;111.75;49.10;;;;;;;-1.00;100.00;99363.47;4954172;28;20051;-45
2020/12/12 07:04:35;;;;;;;110.72;46.15;;;;;;;-1.21;100.00;99361.59;4946548;28;20422;-43
2020/12/12 07:07:07;;;;;;;109.35;48.75;;;;;;;-0.93;100.00;99373.03;4954178;28;20047;-46
2020/12/12 07:09:35;;;;;;;122.55;49.80;;;;;;;-1.03;100.00;99380.09;4972733;28;20413;-45
2020/12/12 07:12:03;;;;;;;118.03;49.00;;;;;;;-0.93;100.00;99380.56;4977691;28;20043;-46
2020/12/12 07:14:29;;;;;;;122.75;50.13;;;;;;;-0.70;100.00;99380.03;4976308;28;20050;-45
2020/12/12 07:16:58;;;;;;;132.25;51.25;;;;;;;-1.04;100.00;99375.00;4980964;28;20400;-50
2020/12/12 07:19:36;;;;;;;126.68;52.53;;;;;;;-1.13;100.00;99382.94;4979569;28;20167;-45
2020/12/12 07:22:06;;;;;;;121.45;52.42;;;;;;;-1.17;100.00;99386.06;4980190;28;20419;-46
2020/12/12 07:24:33;;;;;;;128.10;53.58;;;;;;;-0.93;100.00;99386.44;4978781;28;20448;-44
2020/12/12 07:27:01;;;;;;;119.63;53.58;;;;;;;-0.94;100.00;99394.78;4976777;28;20051;-43
2020/12/12 07:29:29;;;;;;;141.50;55.45;;;;;;;-1.00;100.00;99393.63;4980263;28;20137;-41
2020/12/12 07:31:55;;;;;;;127.75;54.13;;;;;;;-0.92;100.00;99385.69;4980427;28;20052;-44
2020/12/12 07:34:24;;;;;;;131.05;54.65;;;;;;;-0.74;100.00;99390.72;4979294;28;20047;-42
2020/12/12 07:37:05;;;;;;;124.88;54.05;;;;;;;-0.71;100.00;99393.41;4979828;28;20063;-44
2020/12/12 07:39:37;;;;;;;120.55;49.33;;;;;;;-0.31;100.00;99395.34;4979113;28;20049;-47
2020/12/12 07:42:06;;;;;;;122.97;52.63;;;;;;;-0.15;100.00;99399.44;4976987;28;20045;-45
2020/12/12 07:44:33;;;;;;;109.47;51.75;;;;;;;-0.44;100.00;99398.06;4975209;28;20045;-44
2020/12/12 07:47:05;;;;;;;124.25;53.72;;;;;;;-0.59;100.00;99409.09;4981076;28;20044;-46
2020/12/12 07:49:37;;;;;;;132.65;55.78;;;;;;;-0.81;100.00;99404.66;4979431;28;20045;-44
2020/12/12 07:52:12;;;;;;;127.20;54.15;;;;;;;-0.47;100.00;99406.28;4977560;28;20038;-43
2020/12/12 07:54:44;;;;;;;126.70;53.25;;;;;;;-0.44;100.00;99413.13;4974850;28;20061;-47
2020/12/12 07:57:13;;;;;;;126.53;54.47;;;;;;;-0.19;100.00;99416.03;4974622;28;20050;-46
2020/12/12 07:59:43;;;;;;;131.52;54.85;;;;;;;-0.56;100.00;99416.75;4972442;28;20054;-47
2020/12/12 08:02:12;;;;;;;126.50;55.15;;;;;;;-0.42;100.00;99419.94;4973048;28;20077;-50
2020/12/12 08:04:40;;;;;;;136.45;55.25;;;;;;;-0.65;100.00;99428.88;4973120;28;20047;-44
2020/12/12 08:07:12;;;;;;;126.32;55.17;;;;;;;-0.33;100.00;99430.44;4972851;28;20526;-45
2020/12/12 08:09:50;;;;;;;127.25;53.50;;;;;;;-0.39;100.00;99426.78;4972481;28;20322;-50
2020/12/12 08:12:32;;;;;;;126.40;54.67;;;;;;;-0.15;100.00;99430.47;4972028;28;20054;-45
2020/12/12 08:15:26;;;;;;;138.32;57.55;;;;;;;-0.44;100.00;99440.78;4968239;28;20043;-49
2020/12/12 08:17:53;;;;;;;134.45;56.95;;;;;;;-0.54;100.00;99444.50;4964093;28;20043;-48
2020/12/12 08:20:26;;;;;;;147.95;61.67;;;;;;;-0.62;100.00;99444.13;4973672;28;20117;-48
2020/12/12 08:22:58;;;;;;;144.25;59.55;;;;;;;-0.71;100.00;99437.78;4971638;28;20050;-48
2020/12/12 08:25:25;;;;;;;143.77;59.65;;;;;;;-0.40;100.00;99450.22;4975599;28;20049;-46
2020/12/12 08:27:52;;;;;;;133.90;55.65;;;;;;;-0.20;100.00;99456.22;4971915;28;20493;-46
2020/12/12 08:30:18;;;;;;;125.35;55.22;;;;;;;0.08;100.00;99454.22;4973488;28;20105;-45
2020/12/12 08:32:48;;;;;;;141.98;56.75;;;;;;;-0.35;100.00;99459.72;4972829;28;20050;-50
2020/12/12 08:35:19;;;;;;;130.20;54.33;;;;;;;-0.08;100.00;99462.69;4973103;28;20050;-47
2020/12/12 08:37:56;;;;;;;126.03;54.85;;;;;;;0.10;100.00;99461.84;4965655;28;20483;-49
2020/12/12 08:40:27;;;;;;;127.38;51.85;;;;;;;-0.08;100.00;99466.88;4956688;28;20474;-48
2020/12/12 08:42:55;;;;;;;136.98;56.30;;;;;;;-0.12;100.00;99465.00;4955862;28;20070;-47
2020/12/12 08:45:22;;;;;;;140.98;57.65;;;;;;;-0.19;100.00;99468.84;4955013;28;20051;-45
2020/12/12 08:48:00;;;;;;;135.95;57.50;;;;;;;-0.05;100.00;99470.41;4959112;28;20513;-44
2020/12/12 08:50:31;;;;;;;133.27;54.75;;;;;;;-0.05;100.00;99467.00;4975105;28;20050;-49
2020/12/12 08:53:30;;;;;;;143.90;57.45;;;;;;;-0.30;100.00;99462.44;4973420;28;20419;-45
2020/12/12 08:56:25;;;;;;;136.20;56.05;;;;;;;-0.28;100.00;99475.94;4952003;28;20047;-49
2020/12/12 08:59:00;;;;;;;146.32;57.05;;;;;;;-0.19;100.00;99478.03;4949537;28;20116;-45
2020/12/12 09:01:39;;;;;;;109.97;44.08;;;;;;;-0.12;100.00;99480.09;4977383;28;20123;-48
2020/12/12 09:04:09;;;;;;;142.32;57.35;;;;;;;-0.11;100.00;99479.28;4975807;28;24320;-46
2020/12/12 09:06:45;;;;;;;138.73;56.95;;;;;;;-0.08;100.00;99482.81;4974818;28;20057;-47
2020/12/12 09:09:19;;;;;;;142.77;54.63;;;;;;;0.38;100.00;99479.97;4957200;28;20408;-46
2020/12/12 09:12:08;;;;;;;136.70;53.17;;;;;;;0.15;100.00;99480.53;4950577;28;20050;-50
2020/12/12 09:14:38;;;;;;;139.05;54.58;;;;;;;-0.06;100.00;99487.91;4955154;28;20474;-45
2020/12/12 09:17:09;;;;;;;147.60;55.88;;;;;;;-0.09;100.00;99487.78;4952527;28;20059;-44
2020/12/12 09:19:38;;;;;;;128.73;54.92;;;;;;;0.07;100.00;99486.88;4952985;28;20054;-47
2020/12/12 09:22:06;;;;;;;134.55;54.78;;;;;;;0.13;100.00;99497.22;4954518;28;20047;-48
2020/12/12 09:24:33;;;;;;;136.05;54.45;;;;;;;0.04;100.00;99497.63;4931646;28;20137;-44
2020/12/12 09:27:00;;;;;;;113.88;45.25;;;;;;;0.62;100.00;99492.81;4951850;28;20043;-52
2020/12/12 09:29:27;;;;;;;125.72;53.83;;;;;;;0.09;100.00;99481.09;4957473;28;20058;-47
2020/12/12 09:31:57;;;;;;;140.40;56.10;;;;;;;-0.03;100.00;99501.53;4955866;28;20051;-50
2020/12/12 09:34:24;;;;;;;137.10;53.83;;;;;;;0.28;100.00;99502.09;4956663;28;20476;-45
2020/12/12 09:36:52;;;;;;;114.07;47.28;;;;;;;0.56;100.00;99505.13;4954387;28;20614;-46
2020/12/12 09:39:19;;;;;;;124.15;52.72;;;;;;;0.06;100.00;99503.63;4957153;28;20069;-44
2020/12/12 09:41:45;;;;;;;130.85;53.20;;;;;;;0.28;100.00;99508.03;4956106;28;20051;-44
2020/12/12 09:44:12;;;;;;;119.22;50.90;;;;;;;0.62;100.00;99518.00;4962513;28;20415;-45
2020/12/12 09:46:38;;;;;;;125.25;50.00;;;;;;;0.53;100.00;99515.06;4937126;28;20047;-44
2020/12/12 09:49:05;;;;;;;120.70;51.92;;;;;;;0.83;100.00;99502.13;4953306;28;20539;-44
2020/12/12 09:51:32;;;;;;;117.63;52.40;;;;;;;0.82;100.00;99503.78;4957196;28;20051;-42
2020/12/12 09:54:00;;;;;;;112.88;48.75;;;;;;;0.77;100.00;99516.19;4955978;28;20726;-47
2020/12/12 09:56:27;;;;;;;102.20;46.20;;;;;;;1.04;100.00;99515.69;4949253;28;20071;-44
2020/12/12 09:58:57;;;;;;;104.93;47.22;;;;;;;1.03;100.00;99513.97;4955032;28;20047;-46
2020/12/12 10:01:26;;;;;;;105.05;46.75;;;;;;;0.94;99.28;99511.91;4946295;28;20523;-49
2020/12/12 10:03:52;;;;;;;109.40;46.60;;;;;;;0.91;100.00;99519.31;4955324;28;20098;-45
2020/12/12 10:06:19;;;;;;;108.57;48.00;;;;;;;0.90;100.00;99519.25;4956936;28;20055;-45
2020/12/12 10:08:46;;;;;;;115.10;48.88;;;;;;;0.94;100.00;99516.94;4954757;28;20050;-43
2020/12/12 10:11:13;;;;;;;104.93;46.58;;;;;;;0.96;100.00;99515.34;4956357;28;20535;-45
2020/12/12 10:13:40;;;;;;;101.45;46.45;;;;;;;0.78;100.00;99512.00;4955733;28;20047;-46
2020/12/12 10:16:07;;;;;;;114.55;50.28;;;;;;;0.84;100.00;99511.44;4955534;28;20155;-46
2020/12/12 10:18:34;;;;;;;118.20;50.72;;;;;;;0.71;100.00;99512.53;4953339;28;20081;-42
2020/12/12 10:21:01;;;;;;;112.32;49.38;;;;;;;0.71;100.00;99518.44;4954880;28;20047;-44
2020/12/12 10:23:28;;;;;;;104.32;47.00;;;;;;;0.90;100.00;99515.09;4959083;28;20161;-47
2020/12/12 10:25:55;;;;;;;123.75;55.25;;;;;;;0.50;100.00;99520.81;4967972;28;20200;-45
2020/12/12 10:28:21;;;;;;;117.03;53.83;;;;;;;0.97;100.00;99511.16;4975813;28;20051;-47
2020/12/12 10:30:48;;;;;;;111.95;50.05;;;;;;;0.66;100.00;99516.50;4974345;28;20050;-43
2020/12/12 10:33:15;;;;;;;110.25;48.45;;;;;;;0.66;100.00;99509.81;4981386;28;20097;-45
2020/12/12 10:35:42;;;;;;;110.07;47.65;;;;;;;0.70;100.00;99513.34;4955424;28;20047;-50
2020/12/12 10:38:10;;;;;;;121.85;50.47;;;;;;;0.70;100.00;99509.16;4955161;28;20154;-44
2020/12/12 10:40:40;;;;;;;112.93;49.55;;;;;;;0.56;100.00;99506.81;4955883;28;20129;-45
2020/12/12 13:22:52;;;;;;;85.45;39.67;;;;;;;1.67;97.74;99552.09;5053138;27;20386;-41
2020/12/12 13:25:18;;;;;;;79.95;36.72;;;;;;;1.93;97.15;99557.34;5021071;28;20053;-40
2020/12/12 13:27:45;;;;;;;75.10;35.83;;;;;;;1.92;96.31;99564.06;5020392;28;20399;-39
2020/12/12 13:30:19;;;;;;;80.10;37.40;;;;;;;1.52;98.21;99558.97;5016864;28;20050;-42
2020/12/12 13:32:46;;;;;;;82.72;38.65;;;;;;;1.58;98.64;99561.78;5012729;28;20111;-43
2020/12/12 13:35:14;;;;;;;80.55;37.78;;;;;;;1.49;98.30;99572.34;5015357;28;20051;-43
2020/12/12 13:37:41;;;;;;;78.22;36.55;;;;;;;1.27;98.96;99570.53;5014729;28;20050;-39
2020/12/12 13:40:08;;;;;;;79.90;35.63;;;;;;;1.36;98.99;99571.72;5017482;28;20103;-42
2020/12/12 13:42:35;;;;;;;81.05;35.53;;;;;;;1.34;99.74;99575.81;5019307;28;20479;-43
2020/12/12 13:45:06;;;;;;;86.60;38.78;;;;;;;1.44;99.44;99576.31;5017491;28;20056;-40
2020/12/12 13:47:33;;;;;;;76.28;35.83;;;;;;;1.37;99.22;99571.78;5019873;28;20042;-42
2020/12/12 13:50:00;;;;;;;78.97;35.88;;;;;;;1.45;99.52;99579.69;5017240;28;20499;-42
2020/12/12 13:52:27;;;;;;;76.38;34.85;;;;;;;1.28;99.76;99584.00;5017739;28;20499;-38